Aviation Digital Data Service (ADDS)

Output produced by TAFs form (0344 UTC 18 October 2017)
found at http://www.aviationweather.gov/adds/tafs/
 
KTLH 180253Z 05009KT 10SM CLR 18/07 A3021 RMK AO2 SLP228 LAST T01780072 51017
KTLH 172343Z 1800/1824 05007KT P6SM SKC